Time;durP1;ratioP1;P1;durP2;ratioP2;P2;SDS_P1;SDS_P2;PMS_P1;PMS_P2;Temp;Humidity;BMP_temperature;BMP_pressure;BME280_temperature;BME280_humidity;BME280_pressure;Samples;Min_cycle;Max_cycle;Signal;HPM_P1;HPM_P2
2021/04/22 00:01:44;;;;;;;17.00;14.10;;;;;;;9.67;60.66;99883.74;104222;1104;79163;-63
2021/04/22 00:03:52;;;;;;;18.30;15.30;;;;;;;9.64;61.06;99889.52;104215;1104;78522;-63
2021/04/22 00:05:58;;;;;;;18.40;15.60;;;;;;;9.59;61.17;99891.98;104268;1104;79916;-61
2021/04/22 00:08:06;;;;;;;19.80;15.20;;;;;;;9.56;60.93;99897.76;104237;1104;78614;-61
2021/04/22 00:10:17;;;;;;;19.20;15.50;;;;;;;9.54;61.13;99894.44;104229;1104;78525;-63
2021/04/22 00:12:22;;;;;;;18.70;15.40;;;;;;;9.51;60.90;99892.13;104253;1104;77937;-63
2021/04/22 00:14:27;;;;;;;18.70;15.30;;;;;;;9.48;60.82;99895.20;104252;1104;78869;-63
2021/04/22 00:16:32;;;;;;;20.40;14.40;;;;;;;9.46;61.16;99902.66;104262;1104;77985;-63
2021/04/22 00:18:38;;;;;;;20.10;15.80;;;;;;;9.43;60.98;99892.27;104235;1104;77373;-60
2021/04/22 00:20:43;;;;;;;21.20;15.40;;;;;;;9.39;61.10;99891.00;104229;1104;77025;-62
2021/04/22 00:22:49;;;;;;;21.30;15.60;;;;;;;9.37;61.37;99893.03;104232;1104;77856;-62
2021/04/22 00:24:57;;;;;;;20.50;15.70;;;;;;;9.36;61.21;99899.47;104231;1104;77342;-61
2021/04/22 00:27:02;;;;;;;19.40;15.00;;;;;;;9.34;61.12;99910.43;104306;1104;78599;-60
2021/04/22 00:29:08;;;;;;;22.00;15.50;;;;;;;9.33;61.39;99906.09;104235;1104;79483;-62
2021/04/22 00:31:13;;;;;;;19.00;15.20;;;;;;;9.29;61.60;99914.73;104242;1099;78679;-62
2021/04/22 00:33:21;;;;;;;17.80;13.40;;;;;;;9.27;61.80;99906.02;104231;1100;78154;-63
2021/04/22 00:35:27;;;;;;;20.50;13.30;;;;;;;9.26;62.24;99901.64;104235;1104;78802;-62
2021/04/22 00:37:32;;;;;;;18.00;13.80;;;;;;;9.26;62.35;99902.48;104245;1104;79141;-61
2021/04/22 00:39:38;;;;;;;15.80;12.20;;;;;;;9.25;62.26;99908.08;104244;1099;77637;-62
2021/04/22 00:41:43;;;;;;;19.10;12.40;;;;;;;9.26;62.37;99921.34;104241;1104;78157;-61
2021/04/22 00:43:48;;;;;;;16.80;12.20;;;;;;;9.27;62.58;99916.80;104262;1099;77923;-62
2021/04/22 00:45:56;;;;;;;17.60;13.00;;;;;;;9.25;62.57;99921.55;104245;1104;78207;-61
2021/04/22 00:48:06;;;;;;;15.00;13.40;;;;;;;9.26;62.54;99928.59;104242;1104;78921;-62
2021/04/22 00:50:20;;;;;;;15.90;11.10;;;;;;;9.24;62.68;99930.65;104250;1104;78028;-63
2021/04/22 00:52:26;;;;;;;16.30;11.30;;;;;;;9.22;62.60;99938.09;104231;1104;78475;-63
2021/04/22 00:54:32;;;;;;;14.50;11.80;;;;;;;9.20;62.68;99934.77;104258;1104;78541;-64
2021/04/22 00:56:37;;;;;;;13.40;10.80;;;;;;;9.19;62.95;99927.70;104215;1104;78854;-65
2021/04/22 00:58:42;;;;;;;13.60;10.50;;;;;;;9.18;62.91;99937.64;104240;1104;78209;-62
2021/04/22 01:00:55;;;;;;;14.90;11.30;;;;;;;9.16;62.84;99934.31;104233;1098;79164;-63
2021/04/22 01:03:05;;;;;;;13.30;11.20;;;;;;;9.15;62.75;99935.33;104282;1098;76988;-61
2021/04/22 01:05:20;;;;;;;15.60;11.30;;;;;;;9.13;62.78;99933.84;104229;1104;79030;-62
2021/04/22 01:07:25;;;;;;;16.20;11.80;;;;;;;9.10;62.91;99912.67;104258;1104;79449;-64
2021/04/22 01:09:30;;;;;;;16.00;11.80;;;;;;;9.11;62.86;99906.27;104221;1104;78406;-63
2021/04/22 01:11:39;;;;;;;13.90;11.80;;;;;;;9.12;62.96;99911.45;104293;1104;79021;-61
2021/04/22 01:13:44;;;;;;;18.80;12.60;;;;;;;9.10;63.11;99915.37;104273;1098;77476;-64
2021/04/22 01:15:49;;;;;;;14.80;11.40;;;;;;;9.08;63.52;99920.96;104215;1104;77369;-63
2021/04/22 01:17:55;;;;;;;15.30;11.50;;;;;;;9.04;63.20;99932.33;104226;1098;78037;-62
2021/04/22 01:20:00;;;;;;;16.30;11.50;;;;;;;9.02;63.45;99932.50;104237;1104;79479;-61
2021/04/22 01:22:07;;;;;;;14.40;11.20;;;;;;;9.02;63.29;99931.66;104206;1104;79429;-62
2021/04/22 01:24:13;;;;;;;12.80;10.70;;;;;;;8.93;63.71;99936.32;104240;1104;78196;-62
2021/04/22 01:26:21;;;;;;;14.30;11.70;;;;;;;8.88;63.36;99936.06;104257;1104;77427;-62
2021/04/22 01:28:30;;;;;;;13.70;11.00;;;;;;;8.83;63.76;99946.58;104226;1104;78767;-64
2021/04/22 01:30:39;;;;;;;15.30;12.30;;;;;;;8.79;63.41;99953.34;104188;1104;78949;-62
2021/04/22 01:32:44;;;;;;;14.70;11.20;;;;;;;8.70;63.74;99941.88;104244;1104;78888;-61
2021/04/22 01:34:49;;;;;;;12.60;10.80;;;;;;;8.63;63.70;99940.09;104314;1098;78930;-62
2021/04/22 01:36:55;;;;;;;13.30;10.10;;;;;;;8.54;63.36;99947.44;104277;1104;77504;-62
2021/04/22 01:39:00;;;;;;;12.20;9.10;;;;;;;8.45;64.11;99950.44;104268;1104;78233;-63
2021/04/22 01:41:08;;;;;;;11.30;8.90;;;;;;;8.39;63.80;99962.78;104214;1100;78192;-64
2021/04/22 01:43:13;;;;;;;12.10;9.60;;;;;;;8.33;64.09;99954.60;104237;1104;78388;-61
2021/04/22 01:45:19;;;;;;;12.20;8.90;;;;;;;8.25;64.00;99950.13;104293;1104;76936;-61
2021/04/22 01:47:24;;;;;;;10.00;7.90;;;;;;;8.12;63.84;99956.16;104317;1104;76749;-61
2021/04/22 01:49:30;;;;;;;11.50;8.70;;;;;;;8.02;63.98;99960.14;104273;1104;79080;-62
2021/04/22 01:51:35;;;;;;;10.60;8.10;;;;;;;7.93;64.00;99961.23;104235;1104;79672;-63
2021/04/22 01:53:40;;;;;;;12.70;8.70;;;;;;;7.86;64.26;99963.80;104306;1104;79429;-63
2021/04/22 01:55:49;;;;;;;10.00;8.10;;;;;;;7.80;64.06;99963.72;104250;1104;78104;-61
2021/04/22 01:57:54;;;;;;;11.70;8.70;;;;;;;7.72;64.10;99969.98;104324;1104;78685;-62
2021/04/22 02:00:01;;;;;;;10.20;8.20;;;;;;;7.64;64.16;99973.58;104299;1104;78672;-62
2021/04/22 02:02:09;;;;;;;9.70;7.60;;;;;;;7.57;64.24;99983.40;104251;1099;77483;-61
2021/04/22 02:04:14;;;;;;;9.60;7.60;;;;;;;7.52;64.31;99982.27;104250;1104;77122;-62
2021/04/22 02:06:19;;;;;;;10.00;7.90;;;;;;;7.48;64.39;99979.09;104276;1104;76951;-62
2021/04/22 02:08:25;;;;;;;11.30;7.40;;;;;;;7.41;64.61;99988.90;104254;1104;78236;-61
2021/04/22 02:10:30;;;;;;;10.60;7.60;;;;;;;7.34;64.74;99979.86;104282;1104;77018;-61
2021/04/22 02:12:38;;;;;;;11.20;7.70;;;;;;;7.32;64.70;99971.16;104269;1100;78826;-61
2021/04/22 02:14:43;;;;;;;10.60;7.30;;;;;;;7.31;64.94;99972.16;104261;1104;77237;-62
2021/04/22 02:16:48;;;;;;;11.10;8.50;;;;;;;7.27;64.97;99983.45;104300;1104;78077;-62
2021/04/22 02:18:53;;;;;;;9.60;6.90;;;;;;;7.24;65.20;99987.33;104301;1104;79032;-63
2021/04/22 02:20:59;;;;;;;10.40;7.30;;;;;;;7.20;65.35;99995.94;104326;1104;78681;-63
2021/04/22 02:23:06;;;;;;;7.70;6.90;;;;;;;7.17;65.49;99986.34;104259;1104;77368;-62
2021/04/22 02:25:16;;;;;;;9.70;7.40;;;;;;;7.17;65.33;99993.59;104243;1099;77091;-63
2021/04/22 02:27:21;;;;;;;13.30;8.20;;;;;;;7.12;65.25;100000.32;104276;1104;78552;-61
2021/04/22 02:29:26;;;;;;;9.60;7.90;;;;;;;7.10;65.45;99999.67;104208;1104;78951;-61
2021/04/22 02:31:34;;;;;;;9.80;7.70;;;;;;;7.10;65.58;99996.98;104212;1104;77590;-61
2021/04/22 02:33:39;;;;;;;11.80;7.20;;;;;;;7.10;65.74;100001.52;104309;1099;78369;-62
2021/04/22 02:35:49;;;;;;;10.90;7.70;;;;;;;7.10;65.70;100002.36;104243;1104;78805;-61
2021/04/22 02:37:55;;;;;;;10.80;7.70;;;;;;;7.13;65.52;99995.80;104239;1104;77631;-62
2021/04/22 02:40:01;;;;;;;11.60;7.60;;;;;;;7.14;65.74;100006.34;104238;1104;78503;-62
2021/04/22 02:42:08;;;;;;;11.30;7.90;;;;;;;7.14;65.92;100008.22;104278;1104;77769;-61
2021/04/22 02:44:13;;;;;;;11.40;8.20;;;;;;;7.17;66.20;100018.59;104280;1104;77114;-61
2021/04/22 02:46:19;;;;;;;12.80;8.70;;;;;;;7.22;66.33;100018.91;104244;1104;78627;-62
2021/04/22 02:48:25;;;;;;;13.30;9.70;;;;;;;7.35;66.55;100021.85;104213;1104;78919;-61
2021/04/22 02:50:34;;;;;;;11.50;9.40;;;;;;;7.44;66.59;100026.17;104237;1104;78924;-62
2021/04/22 02:52:42;;;;;;;12.30;9.50;;;;;;;7.57;66.82;100026.41;104286;1098;78827;-62
2021/04/22 02:54:47;;;;;;;12.30;9.70;;;;;;;7.66;66.67;100024.50;104203;1105;79244;-61
2021/04/22 02:56:52;;;;;;;11.80;9.60;;;;;;;7.71;66.85;100011.34;104285;1104;78501;-62
2021/04/22 02:58:57;;;;;;;12.10;9.70;;;;;;;7.73;66.76;100014.68;104277;1099;77026;-61
2021/04/22 03:01:02;;;;;;;13.00;10.20;;;;;;;7.73;66.73;100007.45;104273;1103;77821;-61
2021/04/22 03:03:08;;;;;;;11.00;9.10;;;;;;;7.76;67.06;100000.03;104244;1104;79553;-61
2021/04/22 03:05:16;;;;;;;12.20;8.50;;;;;;;7.76;67.11;100000.03;104243;1104;77322;-63
2021/04/22 03:07:24;;;;;;;11.90;8.90;;;;;;;7.77;66.90;99996.34;104259;1104;78251;-62
2021/04/22 03:09:30;;;;;;;11.20;9.40;;;;;;;7.76;66.54;99979.37;104286;1098;77492;-60
2021/04/22 03:11:35;;;;;;;11.30;8.20;;;;;;;7.77;66.36;99966.77;104274;1098;77064;-61
2021/04/22 03:13:43;;;;;;;11.30;7.90;;;;;;;7.75;66.39;99991.13;104234;1104;78386;-61
2021/04/22 03:15:48;;;;;;;9.40;7.20;;;;;;;7.74;66.32;100005.61;104252;1104;79205;-61
2021/04/22 03:17:54;;;;;;;10.50;7.20;;;;;;;7.72;66.19;100011.14;104229;1105;79313;-61
2021/04/22 03:19:59;;;;;;;9.30;6.70;;;;;;;7.67;66.28;100021.61;104249;1104;78086;-62
2021/04/22 03:22:05;;;;;;;9.20;6.20;;;;;;;7.63;66.26;100028.38;104282;1104;78758;-62
2021/04/22 03:24:12;;;;;;;10.90;7.30;;;;;;;7.63;66.26;100023.00;104287;1099;77174;-63
2021/04/22 03:26:17;;;;;;;7.90;5.90;;;;;;;7.62;65.95;100028.55;104289;1104;78872;-60
2021/04/22 03:28:22;;;;;;;9.20;5.80;;;;;;;7.64;65.93;100039.95;104236;1104;77269;-60
2021/04/22 03:30:31;;;;;;;9.20;5.60;;;;;;;7.66;65.59;100037.94;104191;1104;79289;-62
2021/04/22 03:32:37;;;;;;;10.40;5.90;;;;;;;7.69;65.72;100042.95;104303;1099;78471;-62
2021/04/22 03:34:45;;;;;;;6.50;4.50;;;;;;;7.70;65.65;100050.83;104252;1104;78323;-62
2021/04/22 03:36:50;;;;;;;8.20;5.40;;;;;;;7.71;65.53;100060.58;104240;1104;77052;-61
2021/04/22 03:38:55;;;;;;;6.00;4.60;;;;;;;7.72;65.08;100058.70;104242;1104;77166;-61
2021/04/22 03:41:00;;;;;;;9.80;4.50;;;;;;;7.73;64.88;100068.45;104228;1104;78070;-62
2021/04/22 03:43:06;;;;;;;9.20;4.70;;;;;;;7.67;64.78;100072.69;104234;1104;77488;-62
2021/04/22 03:45:15;;;;;;;8.10;4.10;;;;;;;7.66;65.02;100083.64;104208;1104;76903;-62
2021/04/22 03:47:20;;;;;;;6.50;3.60;;;;;;;7.66;64.81;100068.31;104224;1104;78119;-60
2021/04/22 03:49:25;;;;;;;8.00;3.30;;;;;;;7.63;64.82;100057.11;104204;1104;79407;-62
2021/04/22 03:51:30;;;;;;;6.10;3.70;;;;;;;7.54;64.80;100091.27;104226;1104;79563;-63
2021/04/22 03:53:35;;;;;;;7.00;3.90;;;;;;;7.46;64.80;100079.72;104251;1104;79583;-61
2021/04/22 03:55:40;;;;;;;6.40;4.10;;;;;;;7.44;65.13;100085.28;104237;1104;79205;-63
2021/04/22 03:57:46;;;;;;;6.70;3.90;;;;;;;7.40;65.44;100092.02;104260;1104;77007;-62
2021/04/22 03:59:52;;;;;;;7.20;3.80;;;;;;;7.34;65.34;100087.34;104217;1104;78932;-62
2021/04/22 04:01:57;;;;;;;7.50;4.10;;;;;;;7.32;65.85;100086.69;104256;1098;78003;-61
2021/04/22 04:04:03;;;;;;;6.90;4.20;;;;;;;7.27;66.54;100088.23;104268;1105;77448;-62
2021/04/22 04:06:08;;;;;;;4.70;3.60;;;;;;;7.19;67.44;100097.17;104252;1098;78370;-59
2021/04/22 04:08:14;;;;;;;7.30;4.20;;;;;;;7.07;67.50;100093.18;104236;1104;79800;-58
2021/04/22 04:10:19;;;;;;;4.80;3.50;;;;;;;6.96;69.34;100093.56;104262;1104;77663;-58
2021/04/22 04:12:24;;;;;;;7.50;4.80;;;;;;;6.83;68.50;100090.59;104248;1104;78828;-59
2021/04/22 04:14:29;;;;;;;7.90;4.00;;;;;;;6.76;68.95;100086.91;104244;1104;77945;-61
2021/04/22 04:16:35;;;;;;;6.60;4.20;;;;;;;6.67;68.98;100099.54;104272;1105;79022;-61
2021/04/22 04:18:40;;;;;;;7.80;3.90;;;;;;;6.58;69.12;100107.77;104269;1104;78058;-62
2021/04/22 04:20:45;;;;;;;5.90;3.60;;;;;;;6.51;69.84;100108.44;104241;1104;78276;-62
2021/04/22 04:22:50;;;;;;;5.80;3.80;;;;;;;6.41;69.94;100123.05;104246;1099;77001;-61
2021/04/22 04:24:55;;;;;;;6.20;4.10;;;;;;;6.35;69.75;100123.72;104219;1104;79086;-61
2021/04/22 04:27:00;;;;;;;7.40;3.60;;;;;;;6.27;69.88;100121.89;104269;1099;77017;-62
2021/04/22 04:29:06;;;;;;;7.00;3.60;;;;;;;6.23;69.99;100136.66;104207;1104;77361;-61
2021/04/22 04:31:11;;;;;;;8.70;4.20;;;;;;;6.28;69.88;100139.67;104269;1099;77631;-64
2021/04/22 04:33:16;;;;;;;6.70;3.60;;;;;;;6.28;70.17;100138.83;104218;1104;79301;-60
2021/04/22 04:35:22;;;;;;;5.80;3.50;;;;;;;6.17;70.63;100144.52;104225;1104;79345;-61
2021/04/22 04:37:27;;;;;;;5.10;3.70;;;;;;;6.14;70.54;100139.49;104265;1104;78802;-61
2021/04/22 04:39:32;;;;;;;7.90;3.90;;;;;;;6.12;70.48;100136.99;104286;1098;78104;-62
2021/04/22 04:41:37;;;;;;;8.00;3.70;;;;;;;6.13;70.43;100153.89;104242;1104;78196;-62
2021/04/22 04:43:44;;;;;;;5.80;3.40;;;;;;;6.23;70.49;100152.75;104247;1098;77395;-64
2021/04/22 04:45:49;;;;;;;10.00;4.50;;;;;;;6.20;70.65;100147.72;104259;1104;76703;-63
2021/04/22 04:47:54;;;;;;;6.50;3.00;;;;;;;6.27;70.49;100148.71;104242;1098;77614;-62
2021/04/22 04:49:59;;;;;;;7.60;3.40;;;;;;;6.19;70.75;100153.23;104278;1104;79141;-63
2021/04/22 04:52:05;;;;;;;7.30;3.70;;;;;;;6.21;70.81;100148.53;104190;1104;77944;-62
2021/04/22 04:54:11;;;;;;;8.90;4.40;;;;;;;6.25;71.17;100156.09;104292;1098;76799;-62
2021/04/22 04:56:18;;;;;;;8.00;4.10;;;;;;;6.24;70.99;100151.73;104249;1104;79377;-59
2021/04/22 04:58:23;;;;;;;7.60;4.00;;;;;;;6.25;71.01;100140.00;104292;1099;77454;-57
2021/04/22 05:00:29;;;;;;;8.70;4.90;;;;;;;6.25;71.32;100139.16;104238;1104;79352;-60
2021/04/22 05:02:34;;;;;;;7.30;4.60;;;;;;;6.22;71.20;100134.97;104324;1099;78141;-61
2021/04/22 05:04:39;;;;;;;7.20;3.80;;;;;;;6.17;71.32;100133.80;104260;1099;77895;-60
2021/04/22 05:06:45;;;;;;;5.10;3.50;;;;;;;6.17;71.47;100131.11;104264;1103;78794;-61
2021/04/22 05:08:50;;;;;;;7.00;3.50;;;;;;;6.15;71.48;100144.70;104279;1104;77504;-61
2021/04/22 05:10:55;;;;;;;7.60;3.70;;;;;;;6.13;71.60;100141.33;104332;1104;78411;-62
2021/04/22 05:13:00;;;;;;;6.10;3.50;;;;;;;6.07;71.99;100141.99;104265;1104;78120;-62
2021/04/22 05:15:08;;;;;;;5.60;3.60;;;;;;;6.02;72.03;100140.81;104291;1104;78361;-62
2021/04/22 05:17:14;;;;;;;9.90;3.80;;;;;;;6.04;72.13;100147.72;104417;1087;78027;-61
2021/04/22 05:19:19;;;;;;;12.40;4.20;;;;;;;6.07;72.29;100147.35;104319;1104;78701;-62
2021/04/22 05:21:24;;;;;;;8.20;4.20;;;;;;;6.16;72.37;100138.31;104295;1104;78794;-61
2021/04/22 05:23:29;;;;;;;5.30;3.50;;;;;;;6.25;72.77;100140.00;104260;1104;78070;-61
2021/04/22 05:25:34;;;;;;;8.40;3.40;;;;;;;6.43;72.55;100139.80;104344;1098;77004;-62
2021/04/22 05:27:40;;;;;;;8.10;3.20;;;;;;;6.60;72.87;100137.94;104310;1104;77638;-63
2021/04/22 05:29:45;;;;;;;7.90;4.30;;;;;;;6.67;72.93;100145.17;104270;1104;77806;-62
2021/04/22 05:31:50;;;;;;;6.80;3.60;;;;;;;6.77;72.98;100148.49;104296;1099;78256;-63
2021/04/22 05:33:55;;;;;;;7.70;3.30;;;;;;;6.92;72.47;100157.50;104246;1104;77977;-61
2021/04/22 05:36:00;;;;;;;8.50;4.00;;;;;;;7.07;72.24;100163.02;104310;1104;78485;-61
2021/04/22 05:38:06;;;;;;;6.90;4.20;;;;;;;7.18;72.08;100157.27;104279;1099;78980;-62
2021/04/22 05:40:14;;;;;;;8.30;4.40;;;;;;;7.24;71.84;100159.27;104265;1098;78323;-63
2021/04/22 05:42:19;;;;;;;7.40;4.00;;;;;;;7.20;71.81;100167.86;104336;1098;77181;-62
2021/04/22 05:44:25;;;;;;;5.50;3.40;;;;;;;7.19;71.94;100177.76;104302;1098;77925;-64
2021/04/22 05:46:30;;;;;;;5.80;3.70;;;;;;;7.21;71.83;100175.73;104277;1098;79358;-62
2021/04/22 05:48:36;;;;;;;8.20;3.80;;;;;;;7.30;71.73;100171.17;104292;1104;78086;-65
2021/04/22 05:50:41;;;;;;;9.10;3.90;;;;;;;7.36;72.09;100175.85;104294;1104;77096;-61
2021/04/22 05:52:49;;;;;;;8.20;3.50;;;;;;;7.63;72.13;100170.86;104288;1105;77857;-61
2021/04/22 05:54:54;;;;;;;5.30;3.40;;;;;;;8.02;72.29;100162.69;104262;1104;77955;-60
2021/04/22 05:57:00;;;;;;;7.20;3.30;;;;;;;8.39;72.01;100156.57;104306;1104;79005;-61
2021/04/22 05:59:06;;;;;;;6.60;3.20;;;;;;;8.56;71.16;100151.88;104286;1104;78279;-62
2021/04/22 06:01:12;;;;;;;6.20;3.50;;;;;;;8.64;70.82;100155.34;104311;1104;78307;-59
2021/04/22 06:03:17;;;;;;;7.50;3.50;;;;;;;8.83;70.58;100167.44;104284;1104;78196;-61
2021/04/22 06:05:23;;;;;;;6.70;3.20;;;;;;;8.85;70.28;100179.70;104315;1104;77883;-61
2021/04/22 06:07:29;;;;;;;8.20;3.50;;;;;;;9.03;69.87;100181.21;104301;1104;78034;-61
2021/04/22 06:09:52;;;;;;;5.40;3.30;;;;;;;9.05;69.73;100181.85;104288;1104;79140;-61
2021/04/22 06:12:03;;;;;;;8.00;3.50;;;;;;;8.88;69.23;100182.02;104454;1088;78741;-61
2021/04/22 06:14:12;;;;;;;5.70;3.20;;;;;;;8.77;69.21;100182.47;104283;1104;78071;-61
2021/04/22 06:16:20;;;;;;;9.70;4.60;;;;;;;8.85;68.95;100179.70;104294;1104;78178;-61
2021/04/22 06:18:25;;;;;;;6.30;3.40;;;;;;;9.10;68.96;100184.82;104267;1104;77738;-62
2021/04/22 06:20:34;;;;;;;5.70;2.90;;;;;;;9.39;68.69;100184.84;104306;1098;77995;-61
2021/04/22 06:22:40;;;;;;;5.30;3.20;;;;;;;9.55;68.21;100183.80;104327;1104;78778;-61
2021/04/22 06:24:47;;;;;;;6.50;3.50;;;;;;;9.82;68.65;100183.94;104455;1087;78608;-60
2021/04/22 06:26:53;;;;;;;10.10;4.50;;;;;;;9.96;67.89;100185.77;104322;1098;77383;-61
2021/04/22 06:29:10;;;;;;;8.70;4.10;;;;;;;10.01;67.41;100193.28;104856;1086;78254;-62
2021/04/22 06:31:15;;;;;;;9.70;4.20;;;;;;;10.17;67.56;100189.53;104219;1099;76981;-62
2021/04/22 06:33:21;;;;;;;7.00;4.10;;;;;;;10.25;67.03;100186.70;104244;1104;79227;-61
2021/04/22 06:35:27;;;;;;;6.20;4.30;;;;;;;10.31;66.84;100194.04;104307;1099;78790;-62
2021/04/22 06:37:35;;;;;;;9.40;4.10;;;;;;;10.38;66.49;100187.66;104271;1098;78672;-61
2021/04/22 06:39:45;;;;;;;7.40;3.70;;;;;;;10.63;66.12;100191.64;104252;1104;76965;-62
2021/04/22 06:41:51;;;;;;;8.20;3.40;;;;;;;10.87;65.40;100186.86;104265;1104;78165;-62
2021/04/22 06:43:56;;;;;;;6.30;3.40;;;;;;;11.24;65.21;100181.91;104251;1099;76950;-61
2021/04/22 06:46:05;;;;;;;8.30;3.10;;;;;;;12.03;64.62;100185.00;104422;1088;78310;-62
2021/04/22 06:48:18;;;;;;;6.00;2.40;;;;;;;12.89;63.47;100175.94;104690;1086;78710;-62
2021/04/22 06:50:27;;;;;;;;;;;;;;;12.87;61.33;100188.03;104684;1086;80586;-61
2021/04/22 06:52:32;;;;;;;6.90;3.10;;;;;;;12.69;60.72;100183.23;104290;1096;79280;-61
2021/04/22 06:54:41;;;;;;;7.40;2.70;;;;;;;12.79;60.01;100194.51;104294;1104;77750;-63
2021/04/22 06:56:48;;;;;;;7.40;2.60;;;;;;;12.84;59.17;100193.87;104291;1104;77930;-62
2021/04/22 06:58:55;;;;;;;7.70;2.70;;;;;;;12.98;58.83;100198.25;104259;1105;78491;-61
2021/04/22 07:01:00;;;;;;;8.20;2.20;;;;;;;12.61;57.61;100198.88;104325;1098;77940;-63
2021/04/22 07:05:28;;;;;;;6.70;2.60;;;;;;;11.96;57.37;100203.11;104306;1104;77990;-62
2021/04/22 07:07:34;;;;;;;6.20;2.30;;;;;;;12.24;57.51;100208.40;104252;1104;78607;-63
2021/04/22 07:09:39;;;;;;;6.40;2.00;;;;;;;12.50;57.12;100211.14;104284;1104;78392;-61
2021/04/22 07:11:44;;;;;;;5.30;2.00;;;;;;;13.03;56.94;100214.72;104271;1104;77305;-63
2021/04/22 07:13:49;;;;;;;5.80;2.10;;;;;;;13.57;55.27;100211.72;104247;1104;78137;-63
2021/04/22 07:15:56;;;;;;;7.70;2.20;;;;;;;13.76;54.55;100212.73;104273;1104;78186;-62
2021/04/22 07:18:03;;;;;;;10.80;2.20;;;;;;;13.81;52.52;100210.20;104307;1104;78320;-63
2021/04/22 07:20:15;;;;;;;8.20;2.60;;;;;;;13.55;52.30;100217.38;104277;1104;78407;-62
2021/04/22 07:22:29;;;;;;;5.30;2.00;;;;;;;13.47;50.93;100214.90;104266;1099;78338;-60
2021/04/22 07:24:38;;;;;;;6.20;2.00;;;;;;;13.91;51.64;100207.86;104445;1087;77574;-64
2021/04/22 07:28:54;;;;;;;5.50;2.00;;;;;;;14.42;49.53;100224.95;104315;1104;76772;-62
2021/04/22 07:31:00;;;;;;;5.20;2.10;;;;;;;14.82;49.87;100216.53;104563;1085;76822;-63
2021/04/22 07:33:07;;;;;;;8.30;2.90;;;;;;;15.07;48.79;100214.66;104403;1088;80729;-64
2021/04/22 07:35:18;;;;;;;7.40;2.20;;;;;;;15.74;48.87;100217.33;104383;1088;77413;-62
2021/04/22 07:37:23;;;;;;;7.50;2.30;;;;;;;16.20;47.96;100221.38;104220;1104;79784;-63
2021/04/22 07:39:28;;;;;;;6.60;1.90;;;;;;;16.40;46.09;100222.76;104234;1104;78449;-62
2021/04/22 07:41:34;;;;;;;6.00;2.50;;;;;;;16.52;46.20;100212.73;104281;1104;79420;-61
2021/04/22 07:43:39;;;;;;;7.50;2.00;;;;;;;16.68;44.30;100215.88;104231;1104;79051;-64
2021/04/22 07:45:46;;;;;;;8.10;3.00;;;;;;;17.21;44.58;100219.41;104216;1104;78246;-64
2021/04/22 07:47:51;;;;;;;6.30;2.90;;;;;;;17.91;44.00;100224.86;104215;1099;77560;-61
2021/04/22 07:49:57;;;;;;;5.30;2.40;;;;;;;18.43;42.78;100222.89;104267;1104;78338;-62
2021/04/22 07:52:02;;;;;;;7.80;2.00;;;;;;;18.42;41.97;100230.27;104262;1104;77393;-61
2021/04/22 07:54:07;;;;;;;5.40;2.40;;;;;;;17.82;41.01;100221.66;104238;1104;78526;-63
2021/04/22 07:56:12;;;;;;;8.70;2.50;;;;;;;17.49;40.99;100225.00;104270;1104;78745;-62
2021/04/22 07:58:18;;;;;;;9.90;2.60;;;;;;;16.97;40.24;100232.22;104225;1104;78354;-63
2021/04/22 08:00:25;;;;;;;13.00;2.80;;;;;;;16.82;40.49;100237.27;104299;1104;76885;-65
2021/04/22 08:02:31;;;;;;;6.30;2.20;;;;;;;17.49;40.52;100229.63;104241;1104;78817;-64
2021/04/22 08:04:36;;;;;;;8.30;2.50;;;;;;;18.26;39.49;100231.05;104264;1104;78831;-60
2021/04/22 08:06:41;;;;;;;5.90;2.60;;;;;;;18.84;38.35;100223.39;104243;1104;79445;-63
2021/04/22 08:08:47;;;;;;;6.30;2.40;;;;;;;19.10;38.54;100213.70;104280;1098;78201;-61
2021/04/22 08:10:56;;;;;;;8.30;2.50;;;;;;;19.89;36.69;100220.64;104270;1104;78787;-63
2021/04/22 08:13:03;;;;;;;5.40;2.80;;;;;;;19.60;36.83;100227.38;104289;1104;78980;-64
2021/04/22 08:15:12;;;;;;;10.50;2.80;;;;;;;19.77;35.92;100221.86;104275;1104;79650;-60
2021/04/22 08:17:17;;;;;;;10.50;3.10;;;;;;;19.85;35.87;100230.48;104274;1104;78292;-61
2021/04/22 08:19:23;;;;;;;5.50;2.10;;;;;;;21.15;35.58;100230.27;104218;1104;78765;-62
2021/04/22 08:21:28;;;;;;;6.20;2.00;;;;;;;21.23;35.05;100247.38;104317;1104;78584;-60
2021/04/22 08:23:43;;;;;;;7.00;2.10;;;;;;;20.80;31.35;100248.32;104407;1087;78634;-62
2021/04/22 08:25:55;;;;;;;8.50;2.20;;;;;;;21.57;32.52;100233.05;104667;1087;80572;-64
2021/04/22 08:28:01;;;;;;;9.30;2.40;;;;;;;21.26;32.42;100239.42;104283;1099;78838;-62
2021/04/22 08:30:17;;;;;;;5.20;2.30;;;;;;;22.14;30.11;100232.30;104271;1099;78699;-62
2021/04/22 08:32:22;;;;;;;7.20;2.20;;;;;;;21.85;31.53;100234.59;104216;1104;77989;-58
2021/04/22 08:34:28;;;;;;;6.50;2.40;;;;;;;22.63;29.99;100235.47;104231;1104;78612;-59
2021/04/22 08:36:34;;;;;;;6.70;3.00;;;;;;;23.19;27.67;100230.85;104258;1104;78320;-58
2021/04/22 08:38:39;;;;;;;6.30;2.50;;;;;;;23.38;30.33;100231.97;104303;1104;78672;-61
2021/04/22 08:40:45;;;;;;;4.70;2.20;;;;;;;23.72;28.28;100232.20;104270;1104;77626;-63
2021/04/22 08:42:52;;;;;;;7.60;2.20;;;;;;;23.95;28.82;100242.63;104286;1100;78597;-66
2021/04/22 08:45:01;;;;;;;10.70;2.40;;;;;;;24.22;27.04;100242.27;104431;1088;78718;-59
2021/04/22 08:48:03;;;;;;;6.40;2.10;;;;;;;24.12;27.76;100245.89;104261;1104;79638;-62
2021/04/22 08:50:15;;;;;;;7.40;2.30;;;;;;;24.29;27.08;100242.78;104399;1086;76755;-61
2021/04/22 08:52:21;;;;;;;6.90;2.50;;;;;;;23.76;25.94;100245.14;104232;1104;78243;-62
2021/04/22 08:54:27;;;;;;;9.10;2.60;;;;;;;23.80;27.10;100245.42;104422;1088;78330;-61
2021/04/22 08:56:34;;;;;;;6.00;2.90;;;;;;;23.79;26.59;100244.59;104242;1098;77595;-61
2021/04/22 08:58:42;;;;;;;7.40;2.30;;;;;;;23.29;26.62;100250.16;104219;1104;78666;-62
2021/04/22 09:00:51;;;;;;;6.90;2.80;;;;;;;22.95;25.93;100260.06;104267;1104;77408;-60
2021/04/22 09:02:57;;;;;;;7.70;2.60;;;;;;;23.41;26.32;100257.07;104252;1104;77266;-61
2021/04/22 09:05:08;;;;;;;8.20;3.20;;;;;;;23.47;25.70;100253.20;104272;1104;78540;-61
2021/04/22 09:07:13;;;;;;;10.90;4.10;;;;;;;22.75;25.38;100253.42;104267;1104;78791;-61
2021/04/22 09:09:18;;;;;;;8.50;3.40;;;;;;;22.40;26.10;100252.47;104253;1104;79099;-63
2021/04/22 09:11:27;;;;;;;10.60;3.40;;;;;;;23.21;26.74;100242.45;104240;1104;78433;-63
2021/04/22 09:13:34;;;;;;;8.90;3.60;;;;;;;23.51;25.96;100241.63;104231;1104;78350;-61
2021/04/22 09:15:43;;;;;;;8.20;2.70;;;;;;;23.77;24.89;100252.33;104265;1099;78303;-60
2021/04/22 09:18:01;;;;;;;6.60;2.50;;;;;;;23.55;24.96;100249.05;104217;1104;78591;-61
2021/04/22 09:20:13;;;;;;;6.90;2.70;;;;;;;23.57;23.91;100257.06;104271;1104;79165;-60
2021/04/22 09:22:19;;;;;;;7.00;2.50;;;;;;;23.39;24.11;100258.45;104287;1104;78833;-60
2021/04/22 09:24:27;;;;;;;7.60;2.80;;;;;;;23.32;24.73;100249.62;104269;1104;78960;-59
2021/04/22 09:26:48;;;;;;;6.00;2.20;;;;;;;22.60;24.78;100261.63;104251;1104;77402;-61
2021/04/22 09:28:56;;;;;;;7.60;2.20;;;;;;;22.52;24.94;100256.66;104222;1104;77420;-61
2021/04/22 09:31:02;;;;;;;8.20;2.60;;;;;;;22.25;25.65;100262.32;104261;1104;78670;-63
2021/04/22 09:33:19;;;;;;;8.10;2.40;;;;;;;22.26;26.09;100257.65;104285;1098;78143;-60
2021/04/22 09:35:27;;;;;;;7.60;3.00;;;;;;;21.69;26.16;100257.61;104269;1104;78309;-59
2021/04/22 09:37:42;;;;;;;6.90;2.80;;;;;;;21.41;26.62;100264.28;104258;1104;78960;-60
2021/04/22 09:39:48;;;;;;;6.50;2.30;;;;;;;21.50;26.70;100270.13;104297;1104;79074;-59
2021/04/22 09:41:59;;;;;;;13.40;3.00;;;;;;;21.04;26.96;100266.16;104267;1104;78790;-59
2021/04/22 09:44:08;;;;;;;10.80;3.30;;;;;;;20.19;27.15;100261.33;104232;1098;80866;-61
2021/04/22 09:46:21;;;;;;;11.30;2.80;;;;;;;19.31;28.06;100270.46;104401;1088;78783;-60
2021/04/22 09:48:34;;;;;;;9.20;3.30;;;;;;;18.67;28.52;100273.72;104264;1104;76959;-61
2021/04/22 09:50:43;;;;;;;;;;;;;;;18.26;27.94;100263.86;104297;1098;76698;-60
2021/04/22 09:52:56;;;;;;;10.30;2.80;;;;;;;17.38;28.43;100274.99;104232;1099;78717;-61